Terminal Aerodrome Forecast
Issued by NWS

Current Version | Previous Version | Graphics & Text | Print | Product List | Glossary On
Versions: 1 2 3 4 5 6 7 8 9 10 11 12 13 14 15 16 17 18 19 20 21
926
FTUS41 KILN 231324 AAA
TAFLCK
TAF AMD
KLCK 231324Z 2313/2412 23003KT P6SM VCSH BKN012 OVC025
     FM231600 24006KT P6SM VCSH BKN025
     FM232100 27006KT P6SM -SHRA VCTS BKN035CB
      TEMPO 2322/2402 5SM -TSRA BKN025CB
     FM240400 00000KT P6SM FEW035
     FM240700 00000KT 5SM BR FEW050=

USA.gov is the U.S. government's official web portal to all federal, state and local government web resources and services.